createdAt,value
2022-10-05T00:03:37.728Z,14.27
2022-10-05T00:08:39.531Z,13.93
2022-10-05T00:13:41.846Z,11.70
2022-10-05T00:18:49.886Z,10.13
2022-10-05T00:23:53.991Z,10.27
2022-10-05T00:28:55.762Z,9.10
2022-10-05T00:33:57.980Z,10.00
2022-10-05T00:39:01.447Z,12.98
2022-10-05T00:44:14.813Z,10.00
2022-10-05T00:49:36.689Z,9.07
2022-10-05T00:54:48.759Z,12.85
2022-10-05T01:00:09.191Z,9.23
2022-10-05T01:05:31.653Z,11.20
2022-10-05T01:11:05.337Z,10.77
2022-10-05T01:16:31.216Z,11.52
2022-10-05T01:21:59.787Z,9.73
2022-10-05T01:27:52.065Z,11.18
2022-10-05T01:33:15.838Z,13.90
2022-10-05T01:38:20.296Z,12.43
2022-10-05T01:43:45.038Z,14.75
2022-10-05T01:49:04.860Z,12.07
2022-10-05T01:54:35.643Z,12.82
2022-10-05T01:59:53.653Z,10.90
2022-10-05T02:05:02.995Z,12.88
2022-10-05T02:10:27.104Z,11.70
2022-10-05T02:15:48.096Z,13.55
2022-10-05T02:20:52.249Z,11.02
2022-10-05T02:25:56.218Z,12.03
2022-10-05T02:31:07.595Z,9.93
2022-10-05T02:36:24.337Z,11.93
2022-10-05T02:41:52.879Z,12.52
2022-10-05T02:47:23.620Z,11.02
2022-10-05T02:52:43.575Z,11.30
2022-10-05T02:58:05.854Z,12.10
2022-10-05T03:03:13.632Z,13.73
2022-10-05T03:08:25.833Z,15.63
2022-10-05T03:13:47.449Z,12.98
2022-10-05T03:19:07.064Z,12.40
2022-10-05T03:24:35.943Z,14.13
2022-10-05T03:29:55.202Z,13.43
2022-10-05T03:35:02.629Z,14.50
2022-10-05T03:40:41.444Z,14.00
2022-10-05T03:45:54.938Z,14.40
2022-10-05T03:51:23.192Z,14.27
2022-10-05T03:57:05.309Z,16.30
2022-10-05T04:02:18.239Z,12.43
2022-10-05T04:08:02.641Z,13.30
2022-10-05T04:13:20.501Z,15.50
2022-10-05T04:18:36.225Z,15.88
2022-10-05T04:23:44.445Z,12.65
2022-10-05T04:29:17.059Z,15.07
2022-10-05T04:34:39.859Z,13.48
2022-10-05T04:39:51.348Z,13.05
2022-10-05T04:45:07.501Z,12.47
2022-10-05T04:50:22.126Z,16.75
2022-10-05T04:56:07.926Z,15.35
2022-10-05T05:01:46.479Z,13.52
2022-10-05T05:07:12.447Z,14.07
2022-10-05T05:12:34.623Z,14.55
2022-10-05T05:18:05.896Z,12.40
2022-10-05T05:23:35.715Z,13.35
2022-10-05T05:28:58.444Z,12.68
2022-10-05T05:34:17.264Z,16.13
2022-10-05T05:39:37.571Z,12.75
2022-10-05T05:44:49.816Z,16.17
2022-10-05T05:50:22.795Z,16.05
2022-10-05T05:55:38.717Z,14.45
2022-10-05T06:01:02.501Z,14.63
2022-10-05T06:06:12.430Z,13.27
2022-10-05T06:11:31.898Z,13.30
2022-10-05T06:16:45.117Z,12.23
2022-10-05T06:22:08.841Z,14.20
2022-10-05T06:27:33.787Z,12.50
2022-10-05T06:32:42.957Z,15.87
2022-10-05T06:37:56.991Z,13.13
2022-10-05T06:43:25.909Z,11.07
2022-10-05T06:48:54.148Z,10.23
2022-10-05T06:54:06.726Z,10.60
2022-10-05T06:59:17.170Z,9.98
2022-10-05T07:04:35.973Z,9.07
2022-10-05T07:09:52.430Z,11.57
2022-10-05T07:14:54.077Z,8.68
2022-10-05T07:19:59.385Z,10.32
2022-10-05T07:25:15.797Z,8.75
2022-10-05T07:30:17.665Z,9.65
2022-10-05T07:35:25.304Z,7.93
2022-10-05T07:40:38.982Z,7.35
2022-10-05T07:45:52.012Z,7.47
2022-10-05T07:51:03.381Z,7.90
2022-10-05T07:56:40.317Z,5.88
2022-10-05T08:01:47.572Z,6.63
2022-10-05T08:07:02.424Z,6.95
2022-10-05T08:12:25.118Z,9.65
2022-10-05T08:17:44.564Z,10.93
2022-10-05T08:22:51.934Z,6.57
2022-10-05T08:28:40.213Z,7.70
2022-10-05T08:34:23.619Z,8.07
2022-10-05T08:39:29.884Z,8.07
2022-10-05T08:44:56.157Z,6.32
2022-10-05T08:50:31.516Z,8.23
2022-10-05T08:56:02.526Z,12.18
2022-10-05T09:01:04.275Z,6.55
2022-10-05T09:06:49.010Z,7.10
2022-10-05T09:12:14.614Z,5.28
2022-10-05T09:17:39.446Z,6.50
2022-10-05T09:22:50.214Z,6.53
2022-10-05T09:28:27.546Z,6.85
2022-10-05T09:33:57.028Z,7.15
2022-10-05T09:39:32.668Z,5.95
2022-10-05T09:44:52.546Z,6.10
2022-10-05T09:50:07.147Z,5.38
2022-10-05T09:55:33.718Z,7.18
2022-10-05T10:00:41.110Z,6.53
2022-10-05T10:06:12.476Z,5.57
2022-10-05T10:11:32.300Z,9.27
2022-10-05T10:16:51.725Z,5.97
2022-10-05T10:22:11.248Z,7.75
2022-10-05T10:27:12.863Z,8.23
2022-10-05T10:32:51.575Z,7.38
2022-10-05T10:38:12.087Z,7.07
2022-10-05T10:43:29.805Z,7.72
2022-10-05T10:48:40.429Z,6.82
2022-10-05T10:53:57.368Z,8.17
2022-10-05T10:59:25.525Z,8.73
2022-10-05T11:05:04.105Z,14.20
2022-10-05T11:10:08.481Z,11.17
2022-10-05T11:15:13.212Z,11.27
2022-10-05T11:20:20.675Z,11.77
2022-10-05T11:25:31.293Z,11.98
2022-10-05T11:30:52.087Z,11.50
2022-10-05T11:36:18.751Z,10.27
2022-10-05T11:41:51.465Z,12.23
2022-10-05T11:47:15.596Z,10.98
2022-10-05T11:52:17.272Z,12.57
2022-10-05T11:57:25.781Z,13.52
2022-10-05T12:02:49.182Z,9.65
2022-10-05T12:08:12.764Z,10.40
2022-10-05T12:13:41.298Z,14.38
2022-10-05T12:19:23.509Z,11.25
2022-10-05T12:24:54.138Z,12.70
2022-10-05T12:30:11.517Z,9.68
2022-10-05T12:35:49.281Z,11.57
2022-10-05T12:41:05.949Z,12.55
2022-10-05T12:46:31.605Z,11.90
2022-10-05T12:52:06.119Z,11.45
2022-10-05T12:57:27.127Z,12.13
2022-10-05T13:02:45.357Z,14.38
2022-10-05T13:08:23.575Z,13.98
2022-10-05T13:13:34.469Z,13.45
2022-10-05T13:18:47.872Z,12.82
2022-10-05T13:24:32.924Z,13.93
2022-10-05T13:29:40.124Z,12.27
2022-10-05T13:34:56.880Z,13.32
2022-10-05T13:40:04.915Z,15.10
2022-10-05T13:45:23.621Z,13.40
2022-10-05T13:50:34.908Z,13.38
2022-10-05T13:55:55.994Z,13.63
2022-10-05T14:01:13.234Z,13.60
2022-10-05T14:06:26.271Z,13.90
2022-10-05T14:11:35.112Z,12.02
2022-10-05T14:22:25.121Z,13.07
2022-10-05T14:27:29.587Z,13.32
2022-10-05T14:32:42.507Z,14.17
2022-10-05T14:37:53.478Z,13.07
2022-10-05T14:42:55.354Z,13.53
2022-10-05T14:48:00.155Z,17.37
2022-10-05T14:53:19.060Z,14.83
2022-10-05T14:58:44.883Z,14.35
2022-10-05T15:04:20.137Z,14.70
2022-10-05T15:09:49.579Z,15.97
2022-10-05T15:14:55.853Z,13.68
2022-10-05T15:20:17.270Z,16.47
2022-10-05T15:25:27.928Z,18.15
2022-10-05T15:30:32.322Z,16.45
2022-10-05T15:41:58.094Z,15.10
2022-10-05T15:47:07.210Z,14.85
2022-10-05T15:52:33.415Z,16.80
2022-10-05T15:57:56.119Z,14.52
2022-10-05T16:03:26.038Z,13.87
2022-10-05T16:09:00.446Z,15.73
2022-10-05T16:14:08.258Z,14.07
2022-10-05T16:19:24.593Z,14.63
2022-10-05T16:24:50.486Z,17.27
2022-10-05T16:30:06.516Z,19.20
2022-10-05T16:35:36.224Z,17.73
2022-10-05T16:41:02.820Z,16.85
2022-10-05T16:46:32.184Z,16.90
2022-10-05T16:51:55.251Z,16.17
2022-10-05T16:57:20.913Z,15.43
2022-10-05T17:02:45.358Z,15.30
2022-10-05T17:08:22.346Z,16.38
2022-10-05T17:13:39.380Z,17.30
2022-10-05T17:19:12.118Z,18.92
2022-10-05T17:24:31.904Z,17.58
2022-10-05T17:29:47.607Z,20.13
2022-10-05T17:35:01.725Z,20.08
2022-10-05T17:40:29.310Z,21.80
2022-10-05T17:45:33.759Z,24.02
2022-10-05T17:50:46.874Z,21.60
2022-10-05T17:56:02.782Z,22.93
2022-10-05T18:01:13.728Z,21.00
2022-10-05T18:06:24.043Z,21.60
2022-10-05T18:11:28.657Z,20.83
2022-10-05T18:16:59.398Z,19.30
2022-10-05T18:22:14.934Z,18.65
2022-10-05T18:27:32.213Z,18.37
2022-10-05T18:32:46.048Z,21.63
2022-10-05T18:37:59.521Z,20.65
2022-10-05T18:43:09.929Z,18.63
2022-10-05T18:48:30.006Z,19.23
2022-10-05T18:53:55.757Z,28.10
2022-10-05T18:59:09.810Z,18.95
2022-10-05T19:04:47.836Z,21.23
2022-10-05T19:10:19.658Z,22.23
2022-10-05T19:15:47.753Z,17.70
2022-10-05T19:21:00.995Z,23.02
2022-10-05T19:26:09.000Z,19.63
2022-10-05T19:31:13.453Z,16.63
2022-10-05T19:36:46.839Z,22.83
2022-10-05T19:41:54.267Z,24.10
2022-10-05T19:47:04.850Z,18.60
2022-10-05T19:52:25.715Z,22.75
2022-10-05T19:57:27.407Z,23.30
2022-10-05T20:02:29.119Z,24.50
2022-10-05T20:07:30.852Z,21.10
2022-10-05T20:12:53.467Z,21.35
2022-10-05T20:17:55.215Z,22.10
2022-10-05T20:23:25.657Z,21.25
2022-10-05T20:28:31.832Z,20.75
2022-10-05T20:33:33.978Z,21.10
2022-10-05T20:38:40.603Z,21.58
2022-10-05T20:43:42.789Z,22.10
2022-10-05T20:48:44.441Z,19.63
2022-10-05T20:53:46.113Z,21.30
2022-10-05T20:58:47.785Z,20.25
2022-10-05T21:03:49.991Z,20.80
2022-10-05T21:08:51.894Z,21.97
2022-10-05T21:13:53.727Z,17.07
2022-10-05T21:18:55.527Z,20.80
2022-10-05T21:23:57.212Z,19.40
2022-10-05T21:29:00.569Z,18.85
2022-10-05T21:34:02.407Z,18.80
2022-10-05T21:39:04.104Z,20.08
2022-10-05T21:44:05.781Z,21.25
2022-10-05T21:49:08.220Z,21.73
2022-10-05T21:54:13.644Z,20.38
2022-10-05T21:59:18.308Z,18.63
2022-10-05T22:04:20.391Z,20.37
2022-10-05T22:09:22.342Z,20.80
2022-10-05T22:14:24.072Z,22.38
2022-10-05T22:19:25.770Z,20.83
2022-10-05T22:24:27.452Z,22.40
2022-10-05T22:29:29.346Z,20.97
2022-10-05T22:34:31.049Z,18.63
2022-10-05T22:39:32.876Z,19.90
2022-10-05T22:44:34.887Z,19.13
2022-10-05T22:49:36.541Z,18.05
2022-10-05T22:54:38.648Z,19.53
2022-10-05T22:59:40.366Z,18.27
2022-10-05T23:04:42.060Z,19.35
2022-10-05T23:09:43.719Z,22.17
2022-10-05T23:14:45.423Z,22.10
2022-10-05T23:19:47.103Z,20.30
2022-10-05T23:24:48.885Z,18.50
2022-10-05T23:29:50.543Z,20.90
2022-10-05T23:34:52.213Z,18.60
2022-10-05T23:39:53.856Z,16.70
2022-10-05T23:44:55.510Z,21.17
2022-10-05T23:49:57.221Z,20.20
2022-10-05T23:54:58.891Z,18.07
